Latest Weather Observations for Lord Howe Island

IDN60801

Issued at 9:32 pm EST Tuesday 21 April 2015 (issued every 30 minutes, with the page automatically refreshed every 10 minutes)

About weather observations | Map of weather stations | Latest weather observations for NSW | Other Formats
Station Details ID: 200839 Name: LORD HOWE ISLAND AERO Lat: -31.54 Lon: 159.08 Height: 5.0 m
Data from the previous 72 hours. | See also: Recent months at Lord Howe Island
Date/Time
EST
Temp
°C
App
Temp
°C
Dew
Point
Rel
Hum
%
Delta-T
°C
Wind Press
QNH
hPa
Press
MSL
hPa
Rain
since 9 am
mm
Dir
 
Spd
km/h
Gust
km/h
Spd
kts
Gust
kts
21/09:30pm 20.5 17.5 19.1 92 0.9 NE 33 41 18 22 1016.8 - 6.4
21/09:25pm 20.9 17.6 19.3 90 1.0 NE 35 43 19 23 1016.8 - 5.6
21/09:00pm 21.8 20.2 20.1 90 1.1 NNE 28 35 15 19 1016.5 - 5.0
21/08:58pm 21.9 20.4 20.2 90 1.1 NNE 28 35 15 19 1016.5 - 5.0
21/08:47pm 22.0 21.0 19.6 86 1.5 NNE 24 30 13 16 1016.4 - 4.8
21/08:39pm 22.0 21.2 20.0 88 1.3 NE 24 33 13 18 1016.5 - 4.8
21/08:30pm 21.8 20.9 20.6 93 0.8 ENE 26 32 14 17 1016.6 1016.6 4.8
21/08:15pm 21.5 19.2 20.1 92 0.9 NE 32 41 17 22 1016.6 - 4.2
21/08:07pm 22.3 20.5 20.4 89 1.2 NE 30 37 16 20 1016.4 - 3.8
21/08:00pm 22.1 20.2 20.2 89 1.2 NE 30 37 16 20 1016.4 - 3.8
21/07:38pm 22.1 20.3 20.4 90 1.1 NE 30 35 16 19 1016.7 - 3.8
21/07:30pm 22.1 20.4 19.9 87 1.4 NNE 28 39 15 21 1016.7 - 3.8
21/07:24pm 22.2 20.8 19.7 86 1.6 NNE 26 35 14 19 1016.7 - 3.8
21/07:00pm 22.3 21.5 20.1 87 1.4 NNE 24 33 13 18 1016.5 - 3.8
21/06:30pm 22.2 21.0 20.0 87 1.4 NE 26 33 14 18 1016.3 - 3.8
21/06:02pm 22.4 21.8 20.5 89 1.2 NE 24 30 13 16 1016.3 - 3.8
21/06:00pm 22.3 21.7 20.6 90 1.1 NE 24 30 13 16 1016.2 - 3.8
21/05:51pm 22.5 21.9 20.5 88 1.3 NNE 24 30 13 16 1016.2 - 3.8
21/05:30pm 22.5 21.7 20.0 86 1.6 NE 24 30 13 16 1016.1 1016.1 3.8
21/05:00pm 22.5 22.5 19.8 85 1.7 NNE 19 24 10 13 1016.0 - 3.8
21/04:57pm 22.5 22.9 19.8 85 1.7 NNE 17 24 9 13 1015.9 - 3.8
21/04:30pm 22.4 24.1 20.2 87 1.4 NNE 11 24 6 13 1015.8 - 3.8
21/04:00pm 22.3 23.7 20.4 89 1.2 NE 13 20 7 11 1015.7 - 3.8
21/03:30pm 22.0 23.4 20.3 90 1.1 NNE 13 24 7 13 1016.0 - 3.8
21/03:27pm 22.0 23.9 20.6 92 0.9 N 11 24 6 13 1016.0 - 3.8
21/03:06pm 22.1 22.9 20.7 92 0.9 NNE 17 26 9 14 1016.0 - 3.2
21/03:00pm 22.2 24.5 20.7 91 1.0 NNW 9 15 5 8 1015.9 - 3.2
21/02:43pm 21.8 22.6 20.6 93 0.8 N 17 37 9 20 1016.0 - 1.4
21/02:33pm 22.5 24.7 20.5 88 1.3 N 9 20 5 11 1015.9 - 0.2
21/02:30pm 22.6 24.8 20.4 87 1.4 NNW 9 17 5 9 1015.9 1015.9 0.2
21/02:21pm 22.9 25.1 20.4 86 1.6 N 9 13 5 7 1015.8 - 0.2
21/02:00pm 23.0 24.7 20.2 84 1.8 N 11 20 6 11 1015.8 - 0.2
21/01:30pm 22.9 24.3 20.4 86 1.6 N 13 24 7 13 1015.9 - 0.2
21/01:00pm 22.6 22.6 20.1 86 1.6 NNE 20 41 11 22 1016.0 - 0.2
21/12:30pm 22.8 22.0 20.0 84 1.8 NNE 24 39 13 21 1016.3 - 0.2
21/12:18pm 22.8 21.2 20.0 84 1.8 NNE 28 35 15 19 1016.5 - 0.2
21/12:00pm 22.9 20.7 20.3 85 1.7 NE 32 43 17 23 1016.5 - 0.2
21/11:30am 22.8 20.8 20.0 84 1.8 NE 30 37 16 20 1016.7 1016.7 0.2
21/11:00am 22.4 19.7 19.6 84 1.8 NNE 33 43 18 23 1017.0 - 0.2
21/10:30am 22.2 19.6 20.7 91 1.0 NE 35 48 19 26 1016.8 - 0.2
21/10:08am 22.7 21.3 20.5 87 1.4 NE 28 46 15 25 1017.0 - 0.2
21/10:00am 22.5 21.5 20.5 88 1.3 NE 26 39 14 21 1017.1 - 0.2
21/09:30am 22.0 19.8 20.8 93 0.8 NE 33 43 18 23 1017.0 - 0.2
21/09:00am 21.8 19.7 20.6 93 0.8 NE 32 41 17 22 1017.7 - 0.0
21/08:30am 21.5 19.8 19.8 90 1.1 NNE 28 43 15 23 1017.9 1017.9 12.2
21/08:12am 21.5 19.7 20.4 93 0.7 NNE 30 43 16 23 1017.7 - 12.2
21/08:00am 21.1 18.6 20.2 95 0.6 NNE 33 52 18 28 1017.8 - 12.2
21/07:51am 21.3 18.8 20.2 93 0.7 NNE 33 44 18 24 1017.8 - 11.4
21/07:48am 21.4 18.5 20.0 92 0.9 NNE 35 48 19 26 1017.8 - 11.2
21/07:30am 21.3 18.7 19.6 90 1.1 NNE 32 59 17 32 1017.6 - 11.0
21/07:21am 21.5 19.2 19.3 87 1.4 NNE 30 59 16 32 1017.7 - 10.8
21/07:00am 22.0 20.1 19.3 85 1.7 NNE 28 50 15 27 1017.4 - 10.6
21/06:50am 21.6 20.0 19.1 86 1.6 NNE 26 52 14 28 1017.3 - 10.6
21/06:00am 22.0 19.8 18.8 82 2.0 NE 28 54 15 29 1016.7 - 10.6
21/05:30am 21.6 20.1 18.6 83 1.9 N 24 43 13 23 1016.8 1016.8 10.6
21/05:25am 21.6 20.5 18.6 83 1.9 N 22 35 12 19 1016.7 - 10.6
21/05:19am 22.2 18.4 19.7 86 1.6 NE 39 57 21 31 1016.5 - 10.6
21/05:00am 22.2 19.2 19.9 87 1.5 NE 35 44 19 24 1016.1 - 10.6
21/04:30am 22.4 18.9 19.6 84 1.8 NNE 37 48 20 26 1015.8 - 10.6
21/04:04am 22.5 19.5 19.8 85 1.7 NE 35 44 19 24 1015.7 - 10.6
21/04:01am 22.5 19.3 20.2 87 1.5 NE 37 48 20 26 1015.7 - 10.6
21/04:00am 22.4 19.0 19.9 86 1.6 NE 37 50 20 27 1015.7 - 10.6
21/03:30am 22.7 18.4 19.6 82 2.0 NNE 41 54 22 29 1015.7 - 8.4
21/03:27am 22.3 18.0 19.5 84 1.8 NNE 41 56 22 30 1015.7 - 8.4
21/03:23am 22.6 18.7 19.5 82 2.0 NE 39 56 21 30 1015.7 - 8.2
21/03:00am 22.8 19.1 20.0 84 1.8 NE 39 46 21 25 1015.5 - 8.0
21/02:30am 23.1 18.9 19.7 81 2.2 NE 41 50 22 27 1015.5 1015.5 8.0
21/02:00am 23.2 19.2 19.3 79 2.5 NE 39 52 21 28 1016.0 - 8.0
21/01:30am 23.2 19.1 19.1 78 2.6 NE 39 54 21 29 1016.6 - 8.0
21/01:00am 23.2 19.2 19.3 79 2.5 NNE 39 48 21 26 1016.5 - 8.0
21/12:32am 23.2 19.7 19.6 80 2.3 NNE 37 48 20 26 1016.7 - 8.0
21/12:30am 23.2 19.8 19.9 82 2.1 NNE 37 48 20 26 1016.7 - 8.0
21/12:04am 22.9 19.4 19.6 81 2.1 NNE 37 44 20 24 1016.6 - 8.0
21/12:00am 21.7 22.4 19.7 88 1.3 N 15 24 8 13 1016.7 - 8.0
 
Date/Time
EST
Temp
°C
App
Temp
°C
Dew
Point
Rel
Hum
%
Delta-T
°C
Wind Press
QNH
hPa
Press
MSL
hPa
Rain
since 9 am
mm
Dir
 
Spd
km/h
Gust
km/h
Spd
kts
Gust
kts
20/11:30pm 22.2 21.0 20.0 87 1.4 NNE 26 57 14 31 1017.3 1017.3 8.0
20/11:24pm 23.3 21.5 19.5 79 2.4 NNE 28 57 15 31 1017.1 - 8.0
20/11:00pm 22.9 22.2 20.3 85 1.7 NNE 24 37 13 20 1017.2 - 8.0
20/10:41pm 22.5 22.7 20.2 87 1.5 NNE 19 28 10 15 1017.4 - 8.0
20/10:36pm 22.5 23.0 20.0 86 1.6 NNE 17 30 9 16 1017.4 - 7.8
20/10:30pm 22.4 22.6 20.1 87 1.5 NE 19 30 10 16 1017.4 - 7.8
20/10:20pm 22.5 22.4 20.0 86 1.6 NE 20 30 11 16 1017.4 - 7.8
20/10:00pm 21.8 23.4 18.3 80 2.2 NE 7 15 4 8 1017.5 - 7.8
20/09:30pm 21.3 22.6 18.4 83 1.8 N 9 19 5 10 1017.7 - 7.8
20/09:00pm 22.1 23.0 19.3 84 1.8 N 13 30 7 16 1017.8 - 7.8
20/08:30pm 21.5 19.1 19.0 86 1.6 NE 30 37 16 20 1017.9 1017.9 7.8
20/08:00pm 21.4 17.9 18.7 84 1.7 NNE 35 61 19 33 1017.9 - 7.8
20/07:53pm 21.5 17.1 18.5 83 1.9 NNE 39 61 21 33 1017.8 - 7.8
20/07:46pm 21.5 20.8 18.6 83 1.8 NNE 20 43 11 23 1017.9 - 7.8
20/07:30pm 21.6 18.4 19.4 87 1.4 NNE 35 57 19 31 1017.6 - 7.8
20/07:27pm 21.9 17.9 19.4 86 1.6 NNE 39 57 21 31 1017.5 - 7.8
20/07:10pm 21.0 19.8 20.1 95 0.6 NNE 26 48 14 26 1017.5 - 7.8
20/07:00pm 21.4 18.9 19.8 91 1.0 NNE 32 52 17 28 1017.3 - 7.6
20/06:30pm 21.3 20.3 19.7 91 1.0 NE 24 50 13 27 1017.5 - 7.6
20/06:20pm 21.0 22.2 19.9 93 0.7 N 13 20 7 11 1017.5 - 7.6
20/06:00pm 20.8 19.5 19.9 95 0.6 NE 26 33 14 18 1016.9 - 7.2
20/05:58pm 20.8 19.1 19.9 95 0.6 NE 28 37 15 20 1017.0 - 7.2
20/05:45pm 20.8 17.8 19.9 95 0.6 NE 35 43 19 23 1017.2 - 7.2
20/05:30pm 20.6 16.8 19.8 95 0.5 NE 39 50 21 27 1017.1 1017.1 7.2
20/05:00pm 20.4 17.8 19.6 95 0.5 NNE 32 41 17 22 1017.3 - 5.6
20/04:50pm 20.5 18.7 19.6 95 0.6 NNE 28 41 15 22 1017.4 - 4.2
20/04:40pm 20.7 20.1 18.9 89 1.1 NNE 20 33 11 18 1017.4 - 4.0
20/04:33pm 20.4 19.5 18.3 88 1.3 NNE 20 43 11 23 1017.4 - 4.0
20/04:30pm 20.4 19.2 18.5 89 1.2 NNE 22 43 12 23 1017.3 - 4.0
20/04:00pm 20.6 19.6 19.7 95 0.6 E 24 41 13 22 1016.8 - 3.4
20/03:42pm 20.1 20.5 19.0 93 0.7 ENE 15 19 8 10 1017.1 - 1.0
20/03:30pm 20.4 19.4 19.6 95 0.5 ENE 24 32 13 17 1017.1 - 0.2
20/03:08pm 20.6 18.9 19.7 95 0.6 ENE 28 33 15 18 1017.4 - 0.0
20/03:00pm 20.9 19.0 19.3 90 1.0 ENE 28 33 15 18 1017.3 - 0.0
20/02:30pm 21.7 19.0 19.2 86 1.6 NE 32 39 17 21 1017.3 1017.3 0.0
20/02:24pm 21.9 19.7 19.5 86 1.5 NNE 30 39 16 21 1017.3 - 0.0
20/02:00pm 22.5 20.0 20.2 87 1.5 NE 33 41 18 22 1017.4 - 0.0
20/01:30pm 23.6 21.4 19.5 78 2.6 NE 30 33 16 18 1017.4 - 0.0
20/01:00pm 23.8 22.2 19.1 75 3.0 NNE 26 32 14 17 1017.7 - 0.0
20/12:30pm 23.7 21.7 19.1 75 2.9 NNE 28 35 15 19 1017.9 - 0.0
20/12:00pm 23.3 21.2 19.0 77 2.7 NNE 28 33 15 18 1018.6 - 0.0
20/11:30am 23.7 22.1 19.1 75 2.9 NNE 26 41 14 22 1019.1 1019.1 0.0
20/11:00am 24.1 22.1 19.1 73 3.2 NNE 28 35 15 19 1019.3 - 0.0
20/10:30am 24.5 22.5 18.3 68 3.9 NNE 26 32 14 17 1019.6 - 0.0
20/10:00am 24.7 22.4 18.4 68 4.0 NE 28 33 15 18 1019.7 - 0.0
20/09:30am 24.6 22.6 19.1 71 3.5 NNE 28 35 15 19 1019.9 - 0.0
20/09:00am 24.1 21.8 18.4 70 3.6 NNE 28 35 15 19 1020.0 - 0.0
20/08:30am 24.2 21.5 18.5 70 3.6 NE 30 37 16 20 1020.0 1020.0 7.6
20/08:00am 23.8 21.3 18.9 74 3.1 NNE 30 37 16 20 1019.7 - 7.6
20/07:30am 23.1 21.5 18.3 74 3.0 NNE 24 39 13 21 1019.9 - 7.6
20/07:00am 22.9 22.1 18.1 74 3.0 NNE 19 41 10 22 1019.6 - 7.6
20/06:43am 23.0 21.3 18.2 74 3.0 NE 24 33 13 18 1019.5 - 7.6
20/06:30am 22.8 22.1 18.7 77 2.6 NNE 20 32 11 17 1019.3 - 7.6
20/06:00am 22.7 23.2 18.4 76 2.7 NNE 13 24 7 13 1019.2 - 7.6
20/05:30am 22.6 22.2 18.1 76 2.8 NNE 17 33 9 18 1019.0 1019.0 7.6
20/05:00am 22.6 22.2 18.1 76 2.8 NNE 17 24 9 13 1018.9 - 7.6
20/04:30am 22.6 22.3 18.3 76 2.7 N 17 26 9 14 1018.7 - 7.6
20/04:00am 22.7 23.3 18.7 78 2.5 N 13 26 7 14 1018.6 - 7.6
20/03:35am 22.7 23.2 18.4 76 2.7 NNE 13 33 7 18 1018.4 - 7.6
20/03:30am 22.6 22.8 18.6 78 2.5 N 15 32 8 17 1018.3 - 7.6
20/03:16am 22.7 22.9 18.6 77 2.6 N 15 33 8 18 1018.4 - 7.6
20/03:00am 22.7 23.3 18.7 78 2.5 NNE 13 30 7 16 1018.4 - 7.6
20/02:30am 22.8 21.9 17.8 73 3.1 NNE 19 32 10 17 1018.7 1018.7 7.6
20/02:00am 22.7 22.5 17.7 73 3.1 N 15 24 8 13 1018.9 - 7.6
20/01:30am 22.6 22.1 17.8 74 3.0 N 17 30 9 16 1019.1 - 7.6
20/01:00am 22.1 22.6 18.4 79 2.3 NNE 13 26 7 14 1019.5 - 7.6
20/12:30am 19.4 22.3 18.1 92 0.8 CALM 0 0 0 0 1019.9 - 7.6
20/12:00am 19.7 19.9 17.6 88 1.3 SSW 13 17 7 9 1020.0 - 7.6
 
Date/Time
EST
Temp
°C
App
Temp
°C
Dew
Point
Rel
Hum
%
Delta-T
°C
Wind Press
QNH
hPa
Press
MSL
hPa
Rain
since 9 am
mm
Dir
 
Spd
km/h
Gust
km/h
Spd
kts
Gust
kts
19/11:45pm 19.8 19.3 17.8 88 1.2 W 17 24 9 13 1020.3 - 7.6
19/11:30pm 20.1 18.4 18.0 88 1.3 W 24 35 13 19 1020.5 1020.5 7.2
19/11:28pm 20.1 18.4 18.0 88 1.3 W 24 35 13 19 1020.5 - 7.2
19/11:00pm 22.4 23.8 18.7 79 2.3 N 9 15 5 8 1020.3 - 6.8
19/10:30pm 22.3 23.2 18.5 79 2.4 N 11 19 6 10 1020.5 - 6.8
19/10:00pm 22.1 23.1 17.7 76 2.7 N 9 15 5 8 1020.6 - 6.8
19/09:30pm 22.1 22.9 18.1 78 2.5 N 11 19 6 10 1020.7 - 6.8
19/09:00pm 22.0 23.4 18.7 81 2.1 N 9 19 5 10 1020.6 - 6.8
19/08:50pm 22.1 23.1 18.6 80 2.2 N 11 19 6 10 1020.6 - 6.8
19/08:33pm 21.6 22.3 18.9 84 1.7 NNW 13 20 7 11 1020.6 - 6.8
19/08:30pm 21.8 22.9 18.9 83 1.8 N 11 20 6 11 1020.8 1020.8 6.0
19/08:11pm 20.6 22.2 19.2 92 0.9 S 9 13 5 7 1020.5 - 6.0
19/08:05pm 20.2 21.9 19.4 95 0.5 SSW 9 11 5 6 1020.4 - 6.0
19/08:00pm 20.4 22.6 19.1 92 0.8 S 6 9 3 5 1020.5 - 6.0
19/07:46pm 20.5 21.0 19.2 92 0.8 NE 15 20 8 11 1020.5 - 4.6
19/07:34pm 20.3 20.9 18.5 89 1.1 N 13 19 7 10 1020.6 - 2.8
19/07:30pm 20.5 20.9 18.2 87 1.4 NNE 13 22 7 12 1020.6 - 2.2
19/07:08pm 20.9 21.5 18.5 86 1.5 NNE 13 24 7 13 1020.6 - 2.0
19/07:00pm 20.8 21.0 18.6 87 1.4 N 15 24 8 13 1020.6 - 2.0
19/06:52pm 21.4 22.2 19.0 86 1.5 NW 13 24 7 13 1020.5 - 1.4
19/06:50pm 21.5 22.4 19.3 87 1.4 NW 13 22 7 12 1020.4 - 1.4
19/06:30pm 21.4 22.3 19.2 87 1.4 WNW 13 24 7 13 1020.2 - 0.6
19/06:29pm 21.4 22.3 19.2 87 1.4 WNW 13 24 7 13 1020.3 - 0.4
19/06:00pm 23.5 23.3 17.7 70 3.6 N 15 28 8 15 1019.8 - 0.0
19/05:30pm 23.3 23.1 17.7 71 3.5 N 15 28 8 15 1019.4 1019.4 0.0
19/05:00pm 23.3 22.6 17.3 69 3.7 N 17 24 9 13 1019.3 - 0.0
19/04:30pm 23.2 23.5 17.9 72 3.3 NNE 13 20 7 11 1019.3 - 0.0
19/04:00pm 23.4 23.0 18.1 72 3.3 N 17 33 9 18 1019.4 - 0.0
19/03:30pm 23.5 23.2 18.2 72 3.3 N 17 28 9 15 1019.4 - 0.0
19/03:00pm 23.5 23.2 18.2 72 3.3 N 17 33 9 18 1019.4 - 0.0
19/02:30pm 23.7 23.4 18.3 71 3.4 NNE 17 33 9 18 1019.4 1019.4 0.0
19/02:00pm 24.1 23.6 17.7 67 4.0 NNE 17 33 9 18 1019.4 - 0.0
19/01:30pm 24.1 23.5 17.5 66 4.1 NNE 17 33 9 18 1019.4 - 0.0
19/01:00pm 24.6 24.6 17.2 63 4.6 NNE 13 20 7 11 1019.6 - 0.0
19/12:30pm 25.2 24.8 17.1 60 5.0 N 15 32 8 17 1019.9 - 0.0
19/12:00pm 25.5 25.0 16.9 59 5.3 NNE 15 32 8 17 1020.3 - 0.0
19/11:30am 24.6 24.0 17.5 64 4.4 N 17 28 9 15 1020.7 1020.7 0.0
19/11:00am 24.6 22.9 17.2 63 4.6 NNE 22 41 12 22 1021.1 - 0.0
19/10:30am 24.6 23.4 17.5 64 4.4 NNE 20 28 11 15 1021.7 - 0.0
19/10:00am 24.4 23.0 16.9 63 4.6 NNE 20 33 11 18 1021.7 - 0.0
19/09:30am 24.2 23.7 16.9 63 4.5 N 15 24 8 13 1021.8 - 0.0
19/09:00am 23.7 22.2 16.7 65 4.3 NNE 20 41 11 22 1021.9 - 0.0
19/08:54am 23.3 20.1 16.4 65 4.2 NE 28 41 15 22 1021.8 - 0.0
19/08:30am 23.5 23.2 16.4 64 4.3 N 13 19 7 10 1021.9 1021.9 0.2
19/08:00am 22.9 19.6 16.1 65 4.1 NNE 28 35 15 19 1021.6 - 0.2
19/07:30am 22.6 20.5 16.1 66 3.9 NNE 22 35 12 19 1021.7 - 0.2
19/07:00am 22.7 21.4 15.9 65 4.1 N 17 28 9 15 1021.9 - 0.2
19/06:30am 22.4 21.6 16.1 67 3.8 N 15 28 8 15 1021.3 - 0.2
19/06:00am 22.2 21.0 16.0 68 3.7 NNE 17 30 9 16 1021.1 - 0.2
19/05:30am 22.0 20.9 17.4 75 2.8 NNE 19 30 10 16 1021.0 1021.0 0.2
19/05:00am 22.3 21.6 16.5 69 3.5 N 15 24 8 13 1021.2 - 0.0
19/04:30am 21.8 21.3 16.0 69 3.5 NNE 13 28 7 15 1021.3 - 0.0
19/04:00am 22.2 21.2 15.5 66 4.0 N 15 24 8 13 1021.2 - 0.0
19/03:30am 22.1 20.4 14.8 63 4.3 N 17 28 9 15 1021.2 - 0.0
19/03:00am 22.1 21.4 15.4 65 4.0 N 13 24 7 13 1021.1 - 0.0
19/02:30am 22.1 20.9 15.0 64 4.2 N 15 28 8 15 1021.2 1021.2 0.0
19/02:00am 22.3 21.3 15.6 66 4.0 N 15 32 8 17 1021.5 - 0.0
19/01:30am 22.3 20.4 15.2 64 4.2 N 19 39 10 21 1022.1 - 0.0
19/01:00am 22.2 20.5 16.2 69 3.6 NNE 20 30 11 16 1022.5 - 0.0
19/12:30am 22.2 20.2 15.5 66 4.0 NNE 20 39 11 21 1022.9 - 0.0
19/12:00am 22.4 20.7 15.7 66 4.0 NNE 19 35 10 19 1023.3 - 0.0
 
Date/Time
EST
Temp
°C
App
Temp
°C
Dew
Point
Rel
Hum
%
Delta-T
°C
Wind Press
QNH
hPa
Press
MSL
hPa
Rain
since 9 am
mm
Dir
 
Spd
km/h
Gust
km/h
Spd
kts
Gust
kts
18/11:30pm 22.2 19.6 15.9 67 3.8 NNE 24 32 13 17 1023.3 1023.3 0.0
18/11:00pm 22.3 19.2 16.5 69 3.5 NE 28 35 15 19 1023.4 - 0.0
18/10:30pm 22.1 18.9 16.3 69 3.5 NNE 28 37 15 20 1023.4 - 0.0
18/10:00pm 22.4 19.8 15.9 66 3.9 NNE 24 30 13 16 1024.0 - 0.0
18/09:30pm 22.2 19.6 16.0 68 3.7 NNE 24 28 13 15 1024.1 - 0.0

Other Formats:

Comma delimited format used in spreadsheet applications
http://www.bom.gov.au/fwo/IDN60801/IDN60801.94995.axf

JavaScript Object Notation format (JSON) in row-major order
http://www.bom.gov.au/fwo/IDN60801/IDN60801.94995.json